Thunder radar more information blitzortung!


Radar de pluja more information rain snow radar


Visita la nostra xarxa de llocs de meteo:

Template documentation
and downloads

And another site



No particular awareness of the weather is required.    There are no Weather-warnings

Pagina Historial Weather Underground text

Diari Resum February 29, 2016 Unitats:  Mètric    Imperial   Tant
« Previous Dia
SegĂźent Dia »
Diari Setmana Mensual Anual Personalitzada
  Maxima: Minima: Media:
Temperatura: -17.8 °C -15.2 °C -11.2 °C
Punt de rosada: -17.8 °C -22.3 °C -18.2 °C
Humitat: Humidity % 35 % 41 %
Wind Speed: 0 km/h 0 km/h 13.7 km/h
RĂ fegues de vent: 0 km/h - -
Vent:- - WSW
Pression baro: 0 hPa 34097 hPa -
Precipitacions: 0 mm    
Historical Graphs
 
 
Dades de taula per February 29, 2016
Temps Temperatura Punt de rosada Pression baro Vent Wind Speed RĂ fegues de vent Humitat Rainfall Rate (Hourly)
-17.8 °C -17.8 °C 0 hPa Calm     Humidity % 0 mm
03:35 -12.7 °C -17.6 °C 34097 hPa West 7.7 km/h 7.7 km/h 54 % 0 mm
03:45 -12.4 °C -17.4 °C 34097 hPa NW 5.1 km/h 5.1 km/h 54 % 0 mm
03:55 -12.2 °C -17.2 °C 34097 hPa WNW 7.7 km/h 7.7 km/h 54 % 0 mm
04:05 -11.9 °C -17 °C 34097 hPa West 2.6 km/h 15.6 km/h 53 % 0 mm
04:15 -11.8 °C -17.1 °C 34097 hPa NW 12.9 km/h 12.9 km/h 52 % 0 mm
04:25 -11.5 °C -16.9 °C 34097 hPa NW 7.7 km/h 15.6 km/h 51 % 0 mm
04:35 -11.2 °C -16.7 °C 34097 hPa West 7.7 km/h 15.6 km/h 51 % 0 mm
04:45 -11.3 °C -17.2 °C 34097 hPa WSW 7.7 km/h 12.9 km/h 48 % 0 mm
10:53 -11.1 °C -17.2 °C 34097 hPa NNE 41.7 km/h 41.7 km/h 47 % 0 mm
10:58 -11.2 °C -17.3 °C 34097 hPa NNW 20.9 km/h 20.9 km/h 47 % 0 mm
11:03 -11.3 °C -17.4 °C 34097 hPa South 25.9 km/h 25.9 km/h 47 % 0 mm
11:08 -11.4 °C -17.8 °C 34097 hPa SW 20.9 km/h 20.9 km/h 45 % 0 mm
11:13 -11.5 °C -17.9 °C 34097 hPa West 29.8 km/h 29.8 km/h 45 % 0 mm
11:18 -11.6 °C -17.9 °C 34130.9 hPa SW 26.9 km/h 26.9 km/h 45 % 0 mm
11:23 -11.5 °C -17.7 °C 34130.9 hPa West 23.8 km/h 23.8 km/h 46 % 0 mm
11:28 -11.2 °C -17.4 °C 34130.9 hPa NNW 20.9 km/h 20.9 km/h 46 % 0 mm
11:33 -11.2 °C -17.4 °C 34097 hPa NNW 11.9 km/h 11.9 km/h 46 % 0 mm
11:38 -11.1 °C -17.2 °C 34097 hPa WNW 15.6 km/h 15.6 km/h 47 % 0 mm
11:43 -11.2 °C -17.4 °C 34097 hPa West 17.9 km/h 17.9 km/h 46 % 0 mm
11:48 -11.2 °C -17.7 °C 34097 hPa WSW 11.9 km/h 12.7 km/h 45 % 0 mm
11:53 -11.1 °C -17.6 °C 34097 hPa West 29.8 km/h 29.8 km/h 45 % 0 mm
11:58 -10.9 °C -17.3 °C 34097 hPa WSW 23.8 km/h 23.8 km/h 45 % 0 mm
12:03 -10.6 °C -17.1 °C 34130.9 hPa WSW 17.9 km/h 17.9 km/h 45 % 0 mm
12:08 -10.4 °C -16.9 °C 34130.9 hPa SW 11.9 km/h 11.9 km/h 45 % 0 mm
12:13 -10.3 °C -17 °C 34130.9 hPa WSW 15 km/h 15 km/h 44 % 0 mm
12:18 -10.2 °C -16.7 °C 34097 hPa SW 9.3 km/h 11.6 km/h 45 % 0 mm
12:23 -10 °C -16.7 °C 34097 hPa SW 15 km/h 15 km/h 44 % 0 mm
12:28 -9.9 °C -16.7 °C 34097 hPa NW 15 km/h 15 km/h 44 % 0 mm
12:33 -9.8 °C -16.6 °C 34130.9 hPa North 15 km/h 15 km/h 44 % 0 mm
12:38 -9.7 °C -16.4 °C 34130.9 hPa SW 22 km/h 22 km/h 44 % 0 mm
12:43 -9.6 °C -16.6 °C 34130.9 hPa WSW 15 km/h 15 km/h 43 % 0 mm
12:48 -9.6 °C -16.5 °C 34097 hPa WNW 19.6 km/h 19.6 km/h 43 % 0 mm
12:53 -9.6 °C -16.7 °C 34097 hPa SW 26.9 km/h 26.9 km/h 42 % 0 mm
12:58 -9.7 °C -16.8 °C 34097 hPa WSW 26.9 km/h 26.9 km/h 42 % 0 mm
13:03 -9.8 °C -16.7 °C 34130.9 hPa NW 15.6 km/h 15.6 km/h 43 % 0 mm
13:13 -9.7 °C -16.6 °C 34130.9 hPa WSW 20.9 km/h 20.9 km/h 43 % 0 mm
13:18 -9.7 °C -16.4 °C 34130.9 hPa WSW 27.7 km/h 27.7 km/h 44 % 0 mm
13:23 -9.6 °C -16.3 °C 34130.9 hPa West 15 km/h 15 km/h 44 % 0 mm
13:28 -9.7 °C -16.6 °C 34130.9 hPa NE 16.6 km/h 16.6 km/h 43 % 0 mm
13:33 -9.8 °C -16.5 °C 34130.9 hPa West 17.9 km/h 17.9 km/h 44 % 0 mm
13:38 -9.7 °C -16.4 °C 34130.9 hPa WSW 29 km/h 29 km/h 44 % 0 mm
13:43 -9.7 °C -16.6 °C 34130.9 hPa NE 30.6 km/h 30.6 km/h 43 % 0 mm
13:48 -9.6 °C -16.6 °C 34130.9 hPa NNW 23.8 km/h 23.8 km/h 43 % 0 mm
13:53 -9.4 °C -16.4 °C 34130.9 hPa North 15 km/h 15 km/h 43 % 0 mm
13:58 -9.3 °C -16.3 °C 34130.9 hPa SW 15 km/h 15 km/h 43 % 0 mm
14:03 -9.3 °C -16.2 °C 34130.9 hPa WNW 15 km/h 15 km/h 43 % 0 mm
14:08 -9.3 °C -16.2 °C 34130.9 hPa South 26.9 km/h 26.9 km/h 43 % 0 mm
14:13 -9.1 °C -16.1 °C 34130.9 hPa WSW 15 km/h 15 km/h 43 % 0 mm
14:18 -8.9 °C -15.9 °C 34130.9 hPa SSW 15.3 km/h 15.3 km/h 43 % 0 mm
14:23 -9 °C -16.2 °C 34130.9 hPa NW 17.9 km/h 17.9 km/h 42 % 0 mm
14:28 -9.1 °C -16.4 °C 34130.9 hPa West 15 km/h 16.1 km/h 41 % 0 mm
14:33 -9.1 °C -16.4 °C 34130.9 hPa West 26.9 km/h 26.9 km/h 41 % 0 mm
14:38 -9.1 °C -16.2 °C 34130.9 hPa SW 20.9 km/h 20.9 km/h 42 % 0 mm
14:43 -8.9 °C -16.1 °C 34130.9 hPa SW 14.5 km/h 16.6 km/h 42 % 0 mm
14:48 -8.9 °C -16.1 °C 34130.9 hPa WSW 15 km/h 15 km/h 42 % 0 mm
14:53 -8.8 °C -16.2 °C 34130.9 hPa SW 17.9 km/h 17.9 km/h 41 % 0 mm
14:58 -8.7 °C -16.1 °C 34130.9 hPa West 15 km/h 15 km/h 41 % 0 mm
15:03 -8.6 °C -16.2 °C 34164.7 hPa WSW 26.9 km/h 26.9 km/h 40 % 0 mm
15:08 -8.7 °C -16.3 °C 34164.7 hPa West 26.9 km/h 26.9 km/h 40 % 0 mm
15:13 -8.7 °C -16.3 °C 34164.7 hPa SSW 20.9 km/h 20.9 km/h 40 % 0 mm
15:18 -8.6 °C -16.2 °C 34164.7 hPa West 23.8 km/h 23.8 km/h 40 % 0 mm
15:23 -8.7 °C -16.1 °C 34164.7 hPa WSW 15 km/h 15 km/h 41 % 0 mm
15:28 -8.6 °C -16.2 °C 34164.7 hPa East 26.9 km/h 26.9 km/h 40 % 0 mm
15:33 -8.6 °C -16.2 °C 34164.7 hPa WSW 29.8 km/h 29.8 km/h 40 % 0 mm
15:38 -8.4 °C -16.1 °C 34164.7 hPa WNW 11.9 km/h 11.9 km/h 40 % 0 mm
15:43 -8.3 °C -15.9 °C 34164.7 hPa WNW 20.9 km/h 20.9 km/h 40 % 0 mm
15:48 -8.3 °C -15.7 °C 34164.7 hPa SW 12.2 km/h 12.2 km/h 41 % 0 mm
15:58 -8.3 °C -15.7 °C 34164.7 hPa NNW 15.3 km/h 15.3 km/h 41 % 0 mm
16:03 -8.2 °C -15.6 °C 34164.7 hPa WSW 20.9 km/h 20.9 km/h 41 % 0 mm
16:08 -8.3 °C -15.7 °C 34164.7 hPa East 20.9 km/h 20.9 km/h 41 % 0 mm
16:13 -8.3 °C -15.7 °C 34164.7 hPa NW 22 km/h 22 km/h 41 % 0 mm
16:18 -8.3 °C -15.7 °C 34198.6 hPa SW 23.8 km/h 23.8 km/h 41 % 0 mm
16:23 -8.4 °C -15.9 °C 34198.6 hPa SSW 11.9 km/h 11.9 km/h 41 % 0 mm
16:28 -8.4 °C -15.9 °C 34198.6 hPa NNW 15 km/h 15 km/h 41 % 0 mm
16:33 -8.4 °C -16.1 °C 34198.6 hPa WSW 23.8 km/h 23.8 km/h 40 % 0 mm
16:38 -8.4 °C -15.9 °C 34198.6 hPa WNW 32.8 km/h 32.8 km/h 41 % 0 mm
16:43 -8.5 °C -15.9 °C 34198.6 hPa SW 41.7 km/h 41.7 km/h 41 % 0 mm
16:53 -8.6 °C -15.9 °C 34164.7 hPa SW 15 km/h 15 km/h 41 % 0 mm
16:58 -8.5 °C -15.9 °C 34164.7 hPa WNW 15 km/h 15 km/h 41 % 0 mm
17:08 -8.6 °C -16 °C 34198.6 hPa WNW 23.8 km/h 23.8 km/h 41 % 0 mm
17:13 -8.7 °C -15.9 °C 34198.6 hPa WSW 14.5 km/h 14.5 km/h 42 % 0 mm
17:15 -12.5 °C -20.4 °C 34428.8 hPa WSW 7.7 km/h 10.3 km/h 36 % 0 mm
17:23 -8.8 °C -16.2 °C 34222.3 hPa NNW 27.7 km/h 27.7 km/h 41 % 0 mm
17:25 -12.4 °C -20.4 °C 34462.7 hPa WSW 5.1 km/h 15.6 km/h 36 % 0 mm
17:28 -8.9 °C -16.3 °C 34222.3 hPa WSW 29.8 km/h 29.8 km/h 41 % 0 mm
17:33 -8.9 °C -16.3 °C 34222.3 hPa WSW 15 km/h 15 km/h 41 % 0 mm
17:35 -12.4 °C -20.4 °C 34462.7 hPa North 2.6 km/h 10.3 km/h 36 % 0 mm
17:38 -9 °C -16.2 °C 34222.3 hPa WNW 16.1 km/h 16.1 km/h 42 % 0 mm
17:45 -12.6 °C -20.6 °C 34462.7 hPa NW 2.6 km/h 5.1 km/h 36 % 0 mm
17:48 -9.1 °C -16.3 °C 34222.3 hPa SW 15 km/h 15 km/h 42 % 0 mm
17:53 -9.2 °C -16.3 °C 34222.3 hPa WSW 9 km/h 9 km/h 42 % 0 mm
17:55 -12.8 °C -20.7 °C 34462.7 hPa Calm   5.1 km/h 36 % 0 mm
17:58 -9.2 °C -16.3 °C 34222.3 hPa West 15.3 km/h 15.3 km/h 42 % 0 mm
18:03 -9.3 °C -16.5 °C 34222.3 hPa West 29.8 km/h 29.8 km/h 42 % 0 mm
18:05 -12.9 °C -21 °C 34496.6 hPa West 5.1 km/h 10.3 km/h 35 % 0 mm
18:08 -9.4 °C -16.6 °C 34222.3 hPa West 15 km/h 15 km/h 42 % 0 mm
18:13 -9.5 °C -16.6 °C 34222.3 hPa WSW 15 km/h 15 km/h 42 % 0 mm
18:15 -13.1 °C -21.2 °C 34496.6 hPa WSW 2.6 km/h 10.3 km/h 35 % 0 mm
18:18 -9.6 °C -16.7 °C 34256.2 hPa WSW 26.9 km/h 26.9 km/h 42 % 0 mm
18:23 -9.7 °C -16.8 °C 34256.2 hPa NNE 32.8 km/h 32.8 km/h 42 % 0 mm
18:25 -13.1 °C -21.2 °C 34496.6 hPa NNW 5.1 km/h 10.3 km/h 35 % 0 mm
18:28 -9.7 °C -16.8 °C 34256.2 hPa SW 17.9 km/h 17.9 km/h 42 % 0 mm
18:33 -9.8 °C -16.9 °C 34256.2 hPa WSW 26.9 km/h 26.9 km/h 42 % 0 mm
18:35 -13.1 °C -20.9 °C 34496.6 hPa NNW 7.7 km/h 10.3 km/h 36 % 0 mm
18:38 -9.9 °C -17 °C 34256.2 hPa WNW 23.8 km/h 23.8 km/h 42 % 0 mm
18:43 -10 °C -17.1 °C 34256.2 hPa West 25.1 km/h 25.1 km/h 42 % 0 mm
18:45 -13.2 °C -21.3 °C 34496.6 hPa WSW 2.6 km/h 7.7 km/h 35 % 0 mm
18:48 -10.1 °C -17.3 °C 34256.2 hPa West 35.7 km/h 35.7 km/h 41 % 0 mm
18:55 -13.3 °C -21.3 °C 34496.6 hPa West 2.6 km/h 5.1 km/h 35 % 0 mm
18:58 -10.2 °C -17.3 °C 34256.2 hPa WNW 15 km/h 15 km/h 42 % 0 mm
19:03 -10.3 °C -17.4 °C 34293.4 hPa NNW 15 km/h 15 km/h 42 % 0 mm
19:05 -13.3 °C -21.4 °C 34496.6 hPa NW 7.7 km/h 7.7 km/h 35 % 0 mm
19:08 -10.4 °C -17.4 °C 34293.4 hPa SW 9 km/h 9.8 km/h 42 % 0 mm
19:13 -10.5 °C -17.6 °C 34293.4 hPa NNE 9 km/h 11.1 km/h 42 % 0 mm
19:15 -13.3 °C -21.4 °C 34496.6 hPa Calm   7.7 km/h 35 % 0 mm
19:18 -10.6 °C -17.6 °C 34293.4 hPa SW 17.9 km/h 17.9 km/h 42 % 0 mm
19:23 -10.7 °C -17.7 °C 34293.4 hPa SW 6 km/h 8 km/h 42 % 0 mm
19:25 -13.5 °C -21.6 °C 34496.6 hPa Calm   5.1 km/h 35 % 0 mm
19:28 -10.7 °C -17.7 °C 34293.4 hPa WSW 23.8 km/h 23.8 km/h 42 % 0 mm
19:33 -10.8 °C -17.8 °C 34327.3 hPa NW 15.6 km/h 15.6 km/h 42 % 0 mm
19:35 -13.7 °C -21.7 °C 34496.6 hPa WSW 2.6 km/h 5.1 km/h 35 % 0 mm
19:38 -10.9 °C -17.9 °C 34327.3 hPa West 6 km/h 6.3 km/h 42 % 0 mm
19:43 -10.9 °C -17.9 °C 34327.3 hPa South 15 km/h 15 km/h 42 % 0 mm
19:45 -13.9 °C -21.9 °C 34496.6 hPa WSW 2.6 km/h 2.6 km/h 35 % 0 mm
19:53 -11 °C -17.9 °C 34327.3 hPa NNW 11.9 km/h 11.9 km/h 42 % 0 mm
19:55 -13.9 °C -22 °C 34533.8 hPa Calm   5.1 km/h 35 % 0 mm
19:58 -11 °C -17.9 °C 34327.3 hPa West 6 km/h 6 km/h 42 % 0 mm
20:03 -11.1 °C -18.1 °C 34327.3 hPa WNW 11.9 km/h 11.9 km/h 42 % 0 mm
20:05 -13.9 °C -21.9 °C 34533.8 hPa West 2.6 km/h 5.1 km/h 35 % 0 mm
20:08 -11.2 °C -18.1 °C 34327.3 hPa WSW 9 km/h 9 km/h 42 % 0 mm
20:13 -11.2 °C -18.2 °C 34327.3 hPa NE 6 km/h 6 km/h 42 % 0 mm
20:15 -13.9 °C -21.9 °C 34533.8 hPa West 2.6 km/h 7.7 km/h 35 % 0 mm
20:18 -11.3 °C -18.2 °C 34361.1 hPa West 11.9 km/h 11.9 km/h 42 % 0 mm
20:23 -11.3 °C -18.3 °C 34361.1 hPa East 6 km/h 6 km/h 42 % 0 mm
20:25 -14.1 °C -21.9 °C 34533.8 hPa WSW 2.6 km/h 7.7 km/h 36 % 0 mm
20:28 -11.4 °C -18.3 °C 34361.1 hPa WNW 11.9 km/h 11.9 km/h 42 % 0 mm
20:33 -11.4 °C -18.3 °C 34361.1 hPa NNE 15 km/h 15 km/h 42 % 0 mm
20:35 -14.1 °C -21.9 °C 34533.8 hPa WNW 7.7 km/h 10.3 km/h 36 % 0 mm
20:38 -11.5 °C -18.4 °C 34361.1 hPa West 9 km/h 9 km/h 42 % 0 mm
20:43 -11.5 °C -18.4 °C 34361.1 hPa WSW 16.1 km/h 16.1 km/h 42 % 0 mm
20:45 -14.1 °C -21.9 °C 34533.8 hPa WSW 5.1 km/h 7.7 km/h 36 % 0 mm
20:48 -11.5 °C -18.6 °C 34361.1 hPa SW 17.9 km/h 17.9 km/h 41 % 0 mm
20:53 -11.6 °C -18.7 °C 34361.1 hPa SSE 6 km/h 6 km/h 41 % 0 mm
20:55 -14.2 °C -21.9 °C 34533.8 hPa WSW 5.1 km/h 12.9 km/h 36 % 0 mm
20:58 -11.7 °C -18.8 °C 34361.1 hPa West 11.9 km/h 11.9 km/h 41 % 0 mm
21:05 -14.3 °C -22.1 °C 34496.6 hPa Calm   7.7 km/h 36 % 0 mm
21:08 -11.7 °C -18.8 °C 34395 hPa WSW 9 km/h 9 km/h 41 % 0 mm
21:13 -11.8 °C -18.8 °C 34395 hPa West 15 km/h 15 km/h 41 % 0 mm
21:15 -14.4 °C -21.9 °C 34496.6 hPa West 5.1 km/h 7.7 km/h 37 % 0 mm
21:23 -11.9 °C -18.9 °C 34395 hPa West 11.9 km/h 11.9 km/h 41 % 0 mm
21:25 -14.4 °C -22 °C 34533.8 hPa WSW 2.6 km/h 5.1 km/h 37 % 0 mm
21:28 -11.9 °C -19 °C 34395 hPa WSW 6 km/h 6 km/h 41 % 0 mm
21:33 -12.1 °C -19.1 °C 34395 hPa WSW 6 km/h 6 km/h 41 % 0 mm
21:35 -14.5 °C -22.1 °C 34533.8 hPa Calm   5.1 km/h 37 % 0 mm
21:38 -12.1 °C -19.2 °C 34395 hPa West 6 km/h 6 km/h 41 % 0 mm
21:43 -12.2 °C -19.2 °C 34395 hPa WSW 3.1 km/h 3.1 km/h 41 % 0 mm
21:45 -14.6 °C -22.2 °C 34533.8 hPa NW 2.6 km/h 5.1 km/h 37 % 0 mm
21:48 -12.2 °C -19.3 °C 34428.8 hPa WNW 6 km/h 6 km/h 41 % 0 mm
21:53 -12.2 °C -19.3 °C 34428.8 hPa WSW 11.1 km/h 11.1 km/h 41 % 0 mm
21:55 -14.7 °C -22.1 °C 34533.8 hPa Calm   5.1 km/h 38 % 0 mm
21:58 -12.3 °C -19.3 °C 34428.8 hPa West 15 km/h 15 km/h 41 % 0 mm
22:03 -12.3 °C -19.5 °C 34428.8 hPa West 15 km/h 15 km/h 40 % 0 mm
22:05 -14.8 °C -22.2 °C 34533.8 hPa NE 2.6 km/h 2.6 km/h 38 % 0 mm
22:08 -12.3 °C -19.5 °C 34428.8 hPa WSW 9 km/h 9 km/h 40 % 0 mm
22:13 -12.3 °C -19.5 °C 34428.8 hPa WSW 9 km/h 9 km/h 40 % 0 mm
22:15 -14.9 °C -22.3 °C 34533.8 hPa North 5.1 km/h 7.7 km/h 38 % 0 mm
22:18 -12.4 °C -19.6 °C 34462.7 hPa WSW 3.7 km/h   40 % 0 mm
22:23 -12.4 °C -19.6 °C 34462.7 hPa SW 6 km/h 6 km/h 40 % 0 mm
22:25 -15 °C -22.3 °C 34533.8 hPa NNW 2.6 km/h 7.7 km/h 38 % 0 mm
22:28 -12.5 °C -19.7 °C 34462.7 hPa WSW 9 km/h 9 km/h 40 % 0 mm
22:33 -12.4 °C -19.8 °C 34462.7 hPa WSW 15 km/h 15 km/h 39 % 0 mm
22:35 -15.1 °C -22.2 °C 34533.8 hPa North 2.6 km/h 7.7 km/h 39 % 0 mm
22:38 -12.4 °C -19.8 °C 34462.7 hPa NNE 9.3 km/h 10.3 km/h 39 % 0 mm
22:43 -12.3 °C -19.9 °C 34462.7 hPa NE 15 km/h 15 km/h 38 % 0 mm
22:45 -14.7 °C -21.9 °C 34533.8 hPa WNW 7.7 km/h 10.3 km/h 39 % 0 mm
22:48 -12.2 °C -19.8 °C 34462.7 hPa West 6 km/h 6.3 km/h 38 % 0 mm
22:53 -12.2 °C -19.8 °C 34462.7 hPa South 6 km/h 6 km/h 38 % 0 mm
22:55 -14.7 °C -21.9 °C 34533.8 hPa West 2.6 km/h 10.3 km/h 39 % 0 mm
23:03 -12.4 °C -19.9 °C 34428.8 hPa WSW 9 km/h 9 km/h 38 % 0 mm
23:05 -14.8 °C -21.8 °C 34533.8 hPa West 5.1 km/h 5.1 km/h 40 % 0 mm
23:08 -12.4 °C -20.2 °C 34428.8 hPa NNE 15 km/h 15 km/h 37 % 0 mm
23:15 -14.8 °C -21.8 °C 34533.8 hPa WSW 7.7 km/h 10.3 km/h 40 % 0 mm
23:25 -14.9 °C -21.8 °C 34533.8 hPa NNE 7.7 km/h 7.7 km/h 40 % 0 mm
23:35 -14.9 °C -21.8 °C 34567.7 hPa North 2.6 km/h 7.7 km/h 40 % 0 mm
23:45 -15.1 °C -21.8 °C 34567.7 hPa NNW 5.1 km/h 7.7 km/h 41 % 0 mm
23:55 -15.2 °C -21.9 °C 34567.7 hPa Calm   7.7 km/h 41 % 0 mm
Meteo Sesrovires
Elogis d' Weather Underground - 2 mb

Guio original per  Jim McMurry - jmcmurry@mwt.net Adaptat per a la plantilla per  Wim van der Kuil - Leuven-Template.eu

Trobareu la nostra informacio del temps tambe a:

Weather Underground

AWEKAS